Airport View

Enter AWOS ICAO identifier for current METAR.

ex. KFNL

KGGP 101516Z AUTO 20008KT 10SM CLR 26/22 A3002 RMK AO2

10 Aug 2020 15:36

Frequency: 118.5

Phone: 574-737-7310

Other Area AWOS: KGUS - KMCX - KOKK - KRCR

TAF AMD KGUS 101435Z 1014/1117 21012KT 8000 -SHRA BKN050 510102 QNH2990INS TEMPO 1014/1016 22020G25KT -TSRA OVC010CB BECMG 1102/1103 VRB06KT 8000 -SHRA SCT030 BKN050 QNH2987INS TEMPO 1109/1114 4800 BR BECMG 1113/1114 30006KT 9999 NSW SCT020 BKN040 QNH2993INS TX26/1020Z TN17/1111Z